Time,TemperatureF,DewpointF,PressureIn,WindDirection,WindDirectionDegrees,WindSpeedMPH,WindSpeedGustMPH,Humidity,HourlyPrecipIn,Conditions,Clouds,dailyrainin,SoftwareType,DateUTC
2013-03-19 00:05:00,42.4,38.5,29.71,WSW,247,0.0,-999.0,86,-99.99,,,0.00,Acu-Link.com,2013-03-19 04:05:00,
2013-03-19 00:20:00,42.4,38.5,29.71,West,270,0.0,-999.0,86,-99.99,,,0.00,Acu-Link.com,2013-03-19 04:20:00,
2013-03-19 00:35:00,42.4,38.5,29.71,NW,315,0.0,-999.0,86,-99.99,,,0.00,Acu-Link.com,2013-03-19 04:35:00,
2013-03-19 00:50:00,42.4,38.5,29.71,SW,225,0.0,-999.0,86,-99.99,,,0.00,Acu-Link.com,2013-03-19 04:50:00,
2013-03-19 01:05:00,42.3,38.4,29.71,NNW,337,0.0,-999.0,86,-99.99,,,0.00,Acu-Link.com,2013-03-19 05:05:00,
2013-03-19 01:20:00,42.3,38.4,29.71,WNW,292,0.0,-999.0,86,-99.99,,,0.00,Acu-Link.com,2013-03-19 05:20:00,
2013-03-19 01:35:00,42.3,38.4,29.71,WSW,247,0.0,-999.0,86,-99.99,,,0.00,Acu-Link.com,2013-03-19 05:35:00,
2013-03-19 01:50:00,42.4,38.5,29.71,SSE,157,1.1,-999.0,86,-99.99,,,0.00,Acu-Link.com,2013-03-19 05:50:00,
2013-03-19 02:05:00,42.4,38.5,29.71,SSE,157,0.0,-999.0,86,-99.99,,,0.00,Acu-Link.com,2013-03-19 06:05:00,
2013-03-19 02:21:00,42.4,38.5,29.72,West,270,1.1,-999.0,86,-99.99,,,0.00,Acu-Link.com,2013-03-19 06:21:00,
2013-03-19 03:06:00,42.8,38.9,29.72,West,270,0.0,-999.0,86,-99.99,,,0.00,Acu-Link.com,2013-03-19 07:06:00,
2013-03-19 03:21:00,42.8,38.9,29.72,South,180,1.1,-999.0,86,-99.99,,,0.00,Acu-Link.com,2013-03-19 07:21:00,
2013-03-19 03:36:00,43.0,39.1,29.70,SW,225,0.0,-999.0,86,-99.99,,,0.00,Acu-Link.com,2013-03-19 07:36:00,
2013-03-19 03:51:00,43.2,39.3,29.70,West,270,0.0,-999.0,86,-99.99,,,0.00,Acu-Link.com,2013-03-19 07:51:00,
2013-03-19 04:07:00,43.2,39.3,29.69,East,90,0.0,-999.0,86,-99.99,,,0.00,Acu-Link.com,2013-03-19 08:07:00,
2013-03-19 04:22:00,43.2,39.3,29.70,North,0,0.0,-999.0,86,-99.99,,,0.00,Acu-Link.com,2013-03-19 08:22:00,
2013-03-19 04:37:00,43.3,39.4,29.69,WNW,292,0.0,-999.0,86,-99.99,,,0.00,Acu-Link.com,2013-03-19 08:37:00,
2013-03-19 04:52:00,43.3,39.4,29.68,East,90,0.0,-999.0,86,-99.99,,,0.00,Acu-Link.com,2013-03-19 08:52:00,
2013-03-19 05:07:00,43.3,39.4,29.69,ESE,112,1.1,-999.0,86,-99.99,,,0.00,Acu-Link.com,2013-03-19 09:07:00,
2013-03-19 05:22:00,43.3,39.4,29.69,West,270,0.0,-999.0,86,-99.99,,,0.00,Acu-Link.com,2013-03-19 09:22:00,
2013-03-19 05:37:00,43.5,39.6,29.70,West,270,1.1,-999.0,86,-99.99,,,0.00,Acu-Link.com,2013-03-19 09:37:00,
2013-03-19 05:52:00,43.5,39.9,29.70,West,270,0.0,-999.0,87,-99.99,,,0.00,Acu-Link.com,2013-03-19 09:52:00,
2013-03-19 06:08:00,43.7,40.1,29.69,WSW,247,0.0,-999.0,87,-99.99,,,0.00,Acu-Link.com,2013-03-19 10:08:00,
2013-03-19 06:23:00,43.7,40.1,29.71,NNW,337,0.0,-999.0,87,-99.99,,,0.00,Acu-Link.com,2013-03-19 10:23:00,
2013-03-19 06:38:00,43.7,40.1,29.72,WNW,292,0.0,-999.0,87,-99.99,,,0.00,Acu-Link.com,2013-03-19 10:38:00,
2013-03-19 06:53:00,43.9,40.3,29.72,West,270,0.0,-999.0,87,-99.99,,,0.00,Acu-Link.com,2013-03-19 10:53:00,
2013-03-19 07:08:00,44.1,40.5,29.72,South,180,1.1,-999.0,87,-99.99,,,0.00,Acu-Link.com,2013-03-19 11:08:00,
2013-03-19 07:23:00,44.1,40.5,29.74,West,270,2.2,-999.0,87,-99.99,,,0.00,Acu-Link.com,2013-03-19 11:23:00,
2013-03-19 07:38:00,44.1,40.5,29.75,East,90,0.0,-999.0,87,-99.99,,,0.00,Acu-Link.com,2013-03-19 11:38:00,
2013-03-19 07:53:00,43.9,40.3,29.75,NNW,337,0.0,-999.0,87,-99.99,,,0.00,Acu-Link.com,2013-03-19 11:53:00,
2013-03-19 08:08:00,43.7,40.1,29.75,SW,225,0.0,-999.0,87,-99.99,,,0.00,Acu-Link.com,2013-03-19 12:08:00,
2013-03-19 08:23:00,43.7,40.1,29.76,WNW,292,0.0,-999.0,87,-99.99,,,0.00,Acu-Link.com,2013-03-19 12:23:00,
2013-03-19 08:39:00,44.2,40.6,29.76,ESE,112,0.0,-999.0,87,-99.99,,,0.00,Acu-Link.com,2013-03-19 12:39:00,
2013-03-19 08:54:00,44.4,40.8,29.77,ENE,67,0.0,-999.0,87,-99.99,,,0.00,Acu-Link.com,2013-03-19 12:54:00,
2013-03-19 09:09:00,44.6,41.0,29.78,NNE,22,1.1,-999.0,87,-99.99,,,0.00,Acu-Link.com,2013-03-19 13:09:00,
2013-03-19 09:24:00,45.3,40.8,29.78,SE,135,2.2,-999.0,84,-99.99,,,0.00,Acu-Link.com,2013-03-19 13:24:00,
2013-03-19 09:54:00,47.5,38.2,29.79,West,270,2.2,-999.0,70,-99.99,,,0.00,Acu-Link.com,2013-03-19 13:54:00,
2013-03-19 10:09:00,51.4,31.9,29.79,WNW,292,3.2,-999.0,47,-99.99,,,0.00,Acu-Link.com,2013-03-19 14:09:00,
2013-03-19 10:24:00,52.3,31.6,29.79,North,0,5.3,-999.0,45,-99.99,,,0.00,Acu-Link.com,2013-03-19 14:24:00,
2013-03-19 10:39:00,54.3,29.9,29.79,North,0,1.1,-999.0,39,-99.99,,,0.00,Acu-Link.com,2013-03-19 14:39:00,
2013-03-19 10:55:00,55.8,26.4,29.78,WNW,292,2.2,-999.0,32,-99.99,,,0.00,Acu-Link.com,2013-03-19 14:55:00,
2013-03-19 11:10:00,58.5,26.4,29.78,South,180,4.2,-999.0,29,-99.99,,,0.00,Acu-Link.com,2013-03-19 15:10:00,
2013-03-19 11:25:00,58.6,21.9,29.79,WNW,292,3.2,-999.0,24,-99.99,,,0.00,Acu-Link.com,2013-03-19 15:25:00,
2013-03-19 11:40:00,60.3,20.2,29.79,SSW,202,3.2,-999.0,21,-99.99,,,0.00,Acu-Link.com,2013-03-19 15:40:00,
2013-03-19 11:55:00,61.0,6.1,29.80,SW,225,5.3,-999.0,11,-99.99,,,0.00,Acu-Link.com,2013-03-19 15:55:00,
2013-03-19 12:10:00,61.5,11.9,29.80,NNW,337,2.7,-999.0,14,-99.99,,,0.00,Acu-Link.com,2013-03-19 16:10:00,
2013-03-19 12:25:00,61.9,10.5,29.80,East,90,2.7,-999.0,13,-99.99,,,0.00,Acu-Link.com,2013-03-19 16:25:00,
2013-03-19 12:40:00,61.7,6.7,29.80,North,0,1.7,-999.0,11,-99.99,,,0.00,Acu-Link.com,2013-03-19 16:40:00,
2013-03-19 12:55:00,65.5,19.5,29.81,East,90,1.7,-999.0,17,-99.99,,,0.00,Acu-Link.com,2013-03-19 16:55:00,
2013-03-19 13:11:00,64.8,9.1,29.80,SSW,202,4.2,-999.0,11,-99.99,,,0.00,Acu-Link.com,2013-03-19 17:11:00,
2013-03-19 13:26:00,65.5,11.6,29.79,West,270,3.2,-999.0,12,-99.99,,,0.00,Acu-Link.com,2013-03-19 17:26:00,
2013-03-19 13:56:00,68.4,19.0,29.78,West,270,1.1,-999.0,15,-99.99,,,0.00,Acu-Link.com,2013-03-19 17:56:00,
2013-03-19 14:26:00,69.1,14.4,29.78,NNW,337,5.3,-999.0,12,-99.99,,,0.00,Acu-Link.com,2013-03-19 18:26:00,
2013-03-19 14:57:00,68.7,19.2,29.77,East,90,2.7,-999.0,15,-99.99,,,0.00,Acu-Link.com,2013-03-19 18:57:00,
2013-03-19 15:12:00,68.9,16.0,29.77,West,270,2.7,-999.0,13,-99.99,,,0.00,Acu-Link.com,2013-03-19 19:12:00,
2013-03-19 15:27:00,67.8,15.2,29.77,SW,225,1.1,-999.0,13,-99.99,,,0.00,Acu-Link.com,2013-03-19 19:27:00,
2013-03-19 15:42:00,69.1,16.2,29.76,West,270,2.2,-999.0,13,-99.99,,,0.00,Acu-Link.com,2013-03-19 19:42:00,
2013-03-19 15:57:00,68.2,20.3,29.76,West,270,2.2,-999.0,16,-99.99,,,0.00,Acu-Link.com,2013-03-19 19:57:00,
2013-03-19 16:13:00,69.8,18.5,29.75,SSW,202,1.7,-999.0,14,-99.99,,,0.00,Acu-Link.com,2013-03-19 20:13:00,
2013-03-19 16:28:00,69.4,18.1,29.75,SW,225,3.2,-999.0,14,-99.99,,,0.00,Acu-Link.com,2013-03-19 20:28:00,
2013-03-19 16:43:00,68.2,15.5,29.75,SSE,157,2.7,-999.0,13,-99.99,,,0.00,Acu-Link.com,2013-03-19 20:43:00,
2013-03-19 16:58:00,70.7,9.1,29.76,ENE,67,2.7,-999.0,9,-99.99,,,0.00,Acu-Link.com,2013-03-19 20:58:00,
2013-03-19 17:13:00,67.6,6.8,29.77,NE,45,2.2,-999.0,9,-99.99,,,0.00,Acu-Link.com,2013-03-19 21:13:00,
2013-03-19 17:28:00,70.5,0.2,29.77,NE,45,0.0,-999.0,6,-99.99,,,0.00,Acu-Link.com,2013-03-19 21:28:00,
2013-03-19 17:43:00,70.3,6.2,29.76,NW,315,0.0,-999.0,8,-99.99,,,0.00,Acu-Link.com,2013-03-19 21:43:00,
2013-03-19 17:58:00,69.1,5.3,29.76,ESE,112,2.2,-999.0,8,-99.99,,,0.00,Acu-Link.com,2013-03-19 21:58:00,
2013-03-19 18:13:00,68.5,7.5,29.77,East,90,0.0,-999.0,9,-99.99,,,0.00,Acu-Link.com,2013-03-19 22:13:00,
2013-03-19 18:28:00,67.5,4.1,29.77,SSW,202,0.0,-999.0,8,-99.99,,,0.00,Acu-Link.com,2013-03-19 22:28:00,
2013-03-19 18:44:00,64.8,4.7,29.78,West,270,2.2,-999.0,9,-99.99,,,0.00,Acu-Link.com,2013-03-19 22:44:00,
2013-03-19 18:59:00,62.4,2.9,29.78,South,180,3.2,-999.0,9,-99.99,,,0.00,Acu-Link.com,2013-03-19 22:59:00,
2013-03-19 19:14:00,60.6,3.8,29.80,West,270,1.1,-999.0,10,-99.99,,,0.00,Acu-Link.com,2013-03-19 23:14:00,
2013-03-19 19:29:00,59.0,6.5,29.80,East,90,0.0,-999.0,12,-99.99,,,0.00,Acu-Link.com,2013-03-19 23:29:00,
2013-03-19 19:44:00,57.7,7.2,29.82,ESE,112,2.2,-999.0,13,-99.99,,,0.00,Acu-Link.com,2013-03-19 23:44:00,
2013-03-19 19:59:00,56.8,9.7,29.82,SW,225,1.1,-999.0,15,-99.99,,,0.00,Acu-Link.com,2013-03-19 23:59:00,
2013-03-19 20:14:00,55.9,11.7,29.82,North,0,1.1,-999.0,17,-99.99,,,0.00,Acu-Link.com,2013-03-20 00:14:00,
2013-03-19 20:29:00,54.9,14.6,29.82,SW,225,1.7,-999.0,20,-99.99,,,0.00,Acu-Link.com,2013-03-20 00:29:00,
2013-03-19 20:44:00,54.1,12.8,29.83,West,270,1.7,-999.0,19,-99.99,,,0.00,Acu-Link.com,2013-03-20 00:44:00,
2013-03-19 21:00:00,53.2,14.3,29.84,SW,225,0.0,-999.0,21,-99.99,,,0.00,Acu-Link.com,2013-03-20 01:00:00,
2013-03-19 21:15:00,52.5,15.8,29.84,ENE,67,0.0,-999.0,23,-99.99,,,0.00,Acu-Link.com,2013-03-20 01:15:00,
2013-03-19 21:30:00,51.3,17.6,29.84,NNW,337,0.0,-999.0,26,-99.99,,,0.00,Acu-Link.com,2013-03-20 01:30:00,
2013-03-19 21:45:00,50.9,19.8,29.85,ESE,112,1.1,-999.0,29,-99.99,,,0.00,Acu-Link.com,2013-03-20 01:45:00,
2013-03-19 22:00:00,50.4,18.5,29.86,West,270,2.7,-999.0,28,-99.99,,,0.00,Acu-Link.com,2013-03-20 02:00:00,
2013-03-19 22:15:00,50.0,15.6,29.85,NNW,337,1.7,-999.0,25,-99.99,,,0.00,Acu-Link.com,2013-03-20 02:15:00,
2013-03-19 22:30:00,49.3,15.0,29.86,West,270,1.7,-999.0,25,-99.99,,,0.00,Acu-Link.com,2013-03-20 02:30:00,
2013-03-19 22:45:00,49.3,13.1,29.87,West,270,0.0,-999.0,23,-99.99,,,0.00,Acu-Link.com,2013-03-20 02:45:00,
2013-03-19 23:00:00,49.1,10.9,29.87,West,270,1.1,-999.0,21,-99.99,,,0.00,Acu-Link.com,2013-03-20 03:00:00,
2013-03-19 23:16:00,49.1,11.9,29.87,West,270,0.0,-999.0,22,-99.99,,,0.00,Acu-Link.com,2013-03-20 03:16:00,
2013-03-19 23:31:00,48.7,11.6,29.87,NNW,337,0.0,-999.0,22,-99.99,,,0.00,Acu-Link.com,2013-03-20 03:31:00,
2013-03-19 23:46:00,48.0,11.0,29.88,West,270,1.1,-999.0,22,-99.99,,,0.00,Acu-Link.com,2013-03-20 03:46:00,